sensor_id;sensor_type;location;lat;lon;timestamp;P1;durP1;ratioP1;P2;durP2;ratioP2
40471;SDS011;26174;42.908;23.800;2023-09-19T00:02:20;7.72;;;4.35;;
40471;SDS011;26174;42.908;23.800;2023-09-19T00:04:46;12.93;;;4.38;;
40471;SDS011;26174;42.908;23.800;2023-09-19T00:07:13;6.65;;;4.38;;
40471;SDS011;26174;42.908;23.800;2023-09-19T00:09:41;18.08;;;4.95;;
40471;SDS011;26174;42.908;23.800;2023-09-19T00:12:09;6.35;;;4.20;;
40471;SDS011;26174;42.908;23.800;2023-09-19T00:14:35;8.88;;;4.90;;
40471;SDS011;26174;42.908;23.800;2023-09-19T00:17:03;8.23;;;4.30;;
40471;SDS011;26174;42.908;23.800;2023-09-19T00:19:36;6.97;;;4.22;;
40471;SDS011;26174;42.908;23.800;2023-09-19T00:22:03;6.25;;;4.10;;
40471;SDS011;26174;42.908;23.800;2023-09-19T00:24:29;7.70;;;4.57;;
40471;SDS011;26174;42.908;23.800;2023-09-19T00:26:55;9.00;;;4.20;;
40471;SDS011;26174;42.908;23.800;2023-09-19T00:29:21;5.85;;;4.18;;
40471;SDS011;26174;42.908;23.800;2023-09-19T00:31:48;7.00;;;4.38;;
40471;SDS011;26174;42.908;23.800;2023-09-19T00:34:15;11.63;;;5.30;;
40471;SDS011;26174;42.908;23.800;2023-09-19T00:36:41;13.23;;;5.47;;
40471;SDS011;26174;42.908;23.800;2023-09-19T00:39:08;12.20;;;5.45;;
40471;SDS011;26174;42.908;23.800;2023-09-19T00:41:35;8.07;;;4.80;;
40471;SDS011;26174;42.908;23.800;2023-09-19T00:44:01;10.13;;;4.88;;
40471;SDS011;26174;42.908;23.800;2023-09-19T00:46:29;6.57;;;4.13;;
40471;SDS011;26174;42.908;23.800;2023-09-19T00:48:57;8.35;;;4.07;;
40471;SDS011;26174;42.908;23.800;2023-09-19T00:51:24;10.90;;;5.10;;
40471;SDS011;26174;42.908;23.800;2023-09-19T00:53:50;10.45;;;4.70;;
40471;SDS011;26174;42.908;23.800;2023-09-19T00:56:17;7.72;;;4.43;;
40471;SDS011;26174;42.908;23.800;2023-09-19T00:58:44;6.63;;;4.35;;
40471;SDS011;26174;42.908;23.800;2023-09-19T01:01:11;7.22;;;4.90;;
40471;SDS011;26174;42.908;23.800;2023-09-19T01:03:40;9.75;;;5.00;;
40471;SDS011;26174;42.908;23.800;2023-09-19T01:06:06;18.15;;;7.90;;
40471;SDS011;26174;42.908;23.800;2023-09-19T01:08:32;6.50;;;4.55;;
40471;SDS011;26174;42.908;23.800;2023-09-19T01:11:01;9.30;;;4.75;;
40471;SDS011;26174;42.908;23.800;2023-09-19T01:17:03;7.82;;;3.92;;
40471;SDS011;26174;42.908;23.800;2023-09-19T01:30:47;8.63;;;4.65;;
40471;SDS011;26174;42.908;23.800;2023-09-19T01:33:16;7.32;;;4.60;;
40471;SDS011;26174;42.908;23.800;2023-09-19T01:35:42;19.67;;;5.55;;
40471;SDS011;26174;42.908;23.800;2023-09-19T01:38:10;9.45;;;5.45;;
40471;SDS011;26174;42.908;23.800;2023-09-19T01:40:43;7.93;;;5.65;;
40471;SDS011;26174;42.908;23.800;2023-09-19T01:43:21;20.95;;;7.30;;
40471;SDS011;26174;42.908;23.800;2023-09-19T01:46:35;11.80;;;5.65;;
40471;SDS011;26174;42.908;23.800;2023-09-19T01:48:51;10.95;;;5.72;;
40471;SDS011;26174;42.908;23.800;2023-09-19T01:51:37;13.15;;;5.60;;
40471;SDS011;26174;42.908;23.800;2023-09-19T01:54:08;10.13;;;6.28;;
40471;SDS011;26174;42.908;23.800;2023-09-19T01:56:36;15.50;;;6.22;;
40471;SDS011;26174;42.908;23.800;2023-09-19T01:59:16;12.50;;;5.85;;
40471;SDS011;26174;42.908;23.800;2023-09-19T02:01:52;12.27;;;6.07;;
40471;SDS011;26174;42.908;23.800;2023-09-19T02:04:19;18.70;;;5.53;;
40471;SDS011;26174;42.908;23.800;2023-09-19T02:06:45;10.73;;;5.88;;
40471;SDS011;26174;42.908;23.800;2023-09-19T02:09:13;9.38;;;6.00;;
40471;SDS011;26174;42.908;23.800;2023-09-19T02:11:39;12.48;;;5.90;;
40471;SDS011;26174;42.908;23.800;2023-09-19T02:14:06;15.00;;;7.13;;
40471;SDS011;26174;42.908;23.800;2023-09-19T02:16:33;10.15;;;6.40;;
40471;SDS011;26174;42.908;23.800;2023-09-19T02:19:09;13.15;;;8.18;;
40471;SDS011;26174;42.908;23.800;2023-09-19T02:21:35;14.35;;;6.97;;
40471;SDS011;26174;42.908;23.800;2023-09-19T02:24:00;21.90;;;11.05;;
40471;SDS011;26174;42.908;23.800;2023-09-19T02:26:27;11.18;;;7.18;;
40471;SDS011;26174;42.908;23.800;2023-09-19T02:28:53;13.35;;;6.88;;
40471;SDS011;26174;42.908;23.800;2023-09-19T02:31:19;18.55;;;7.55;;
40471;SDS011;26174;42.908;23.800;2023-09-19T02:33:44;24.77;;;7.35;;
40471;SDS011;26174;42.908;23.800;2023-09-19T02:36:11;20.75;;;9.05;;
40471;SDS011;26174;42.908;23.800;2023-09-19T02:38:36;15.23;;;7.68;;
40471;SDS011;26174;42.908;23.800;2023-09-19T02:41:02;18.10;;;8.10;;
40471;SDS011;26174;42.908;23.800;2023-09-19T02:43:28;13.13;;;7.03;;
40471;SDS011;26174;42.908;23.800;2023-09-19T02:45:54;12.77;;;7.60;;
40471;SDS011;26174;42.908;23.800;2023-09-19T02:48:20;13.57;;;7.35;;
40471;SDS011;26174;42.908;23.800;2023-09-19T02:50:46;15.88;;;7.82;;
40471;SDS011;26174;42.908;23.800;2023-09-19T02:53:14;16.42;;;8.07;;
40471;SDS011;26174;42.908;23.800;2023-09-19T02:55:40;11.98;;;6.95;;
40471;SDS011;26174;42.908;23.800;2023-09-19T02:58:06;27.13;;;8.40;;
40471;SDS011;26174;42.908;23.800;2023-09-19T03:00:41;16.60;;;8.07;;
40471;SDS011;26174;42.908;23.800;2023-09-19T03:03:12;13.93;;;8.10;;
40471;SDS011;26174;42.908;23.800;2023-09-19T03:05:38;15.75;;;7.40;;
40471;SDS011;26174;42.908;23.800;2023-09-19T03:08:04;13.65;;;7.82;;
40471;SDS011;26174;42.908;23.800;2023-09-19T03:10:29;16.20;;;7.82;;
40471;SDS011;26174;42.908;23.800;2023-09-19T03:12:56;24.70;;;8.60;;
40471;SDS011;26174;42.908;23.800;2023-09-19T03:15:23;17.92;;;8.20;;
40471;SDS011;26174;42.908;23.800;2023-09-19T03:17:48;10.93;;;6.88;;
40471;SDS011;26174;42.908;23.800;2023-09-19T03:20:15;17.60;;;7.97;;
40471;SDS011;26174;42.908;23.800;2023-09-19T03:22:44;14.02;;;8.25;;
40471;SDS011;26174;42.908;23.800;2023-09-19T03:25:10;20.15;;;9.23;;
40471;SDS011;26174;42.908;23.800;2023-09-19T03:27:37;26.50;;;11.35;;
40471;SDS011;26174;42.908;23.800;2023-09-19T03:30:03;30.35;;;12.63;;
40471;SDS011;26174;42.908;23.800;2023-09-19T03:32:36;15.73;;;10.20;;
40471;SDS011;26174;42.908;23.800;2023-09-19T03:35:03;21.15;;;10.60;;
40471;SDS011;26174;42.908;23.800;2023-09-19T03:37:32;15.75;;;7.28;;
40471;SDS011;26174;42.908;23.800;2023-09-19T03:40:00;16.20;;;8.55;;
40471;SDS011;26174;42.908;23.800;2023-09-19T03:42:30;18.95;;;9.43;;
40471;SDS011;26174;42.908;23.800;2023-09-19T03:44:56;21.00;;;9.32;;
40471;SDS011;26174;42.908;23.800;2023-09-19T03:47:22;20.80;;;10.77;;
40471;SDS011;26174;42.908;23.800;2023-09-19T03:49:47;16.08;;;8.32;;
40471;SDS011;26174;42.908;23.800;2023-09-19T03:52:13;17.00;;;7.65;;
40471;SDS011;26174;42.908;23.800;2023-09-19T03:54:41;18.52;;;8.82;;
40471;SDS011;26174;42.908;23.800;2023-09-19T03:57:06;16.65;;;9.18;;
40471;SDS011;26174;42.908;23.800;2023-09-19T03:59:32;18.23;;;10.13;;
40471;SDS011;26174;42.908;23.800;2023-09-19T04:01:57;21.58;;;10.57;;
40471;SDS011;26174;42.908;23.800;2023-09-19T04:04:23;27.35;;;11.93;;
40471;SDS011;26174;42.908;23.800;2023-09-19T04:06:53;34.00;;;14.82;;
40471;SDS011;26174;42.908;23.800;2023-09-19T04:09:19;31.00;;;12.20;;
40471;SDS011;26174;42.908;23.800;2023-09-19T04:12:00;33.92;;;12.65;;
40471;SDS011;26174;42.908;23.800;2023-09-19T04:14:25;22.20;;;8.35;;
40471;SDS011;26174;42.908;23.800;2023-09-19T04:16:51;14.52;;;8.00;;
40471;SDS011;26174;42.908;23.800;2023-09-19T04:19:16;25.65;;;8.18;;
40471;SDS011;26174;42.908;23.800;2023-09-19T04:21:42;21.80;;;9.35;;
40471;SDS011;26174;42.908;23.800;2023-09-19T04:24:08;21.63;;;8.95;;
40471;SDS011;26174;42.908;23.800;2023-09-19T04:26:33;21.52;;;8.63;;
40471;SDS011;26174;42.908;23.800;2023-09-19T04:28:59;19.50;;;8.80;;
40471;SDS011;26174;42.908;23.800;2023-09-19T04:31:26;22.23;;;8.52;;
40471;SDS011;26174;42.908;23.800;2023-09-19T04:33:51;15.57;;;7.60;;
40471;SDS011;26174;42.908;23.800;2023-09-19T04:36:18;26.83;;;8.07;;
40471;SDS011;26174;42.908;23.800;2023-09-19T04:38:43;17.80;;;9.85;;
40471;SDS011;26174;42.908;23.800;2023-09-19T04:41:09;25.10;;;10.65;;
40471;SDS011;26174;42.908;23.800;2023-09-19T04:43:34;31.80;;;10.88;;
40471;SDS011;26174;42.908;23.800;2023-09-19T04:46:00;30.73;;;9.80;;
40471;SDS011;26174;42.908;23.800;2023-09-19T04:48:25;25.30;;;10.00;;
40471;SDS011;26174;42.908;23.800;2023-09-19T04:50:51;18.52;;;8.32;;
40471;SDS011;26174;42.908;23.800;2023-09-19T04:53:17;30.33;;;10.52;;
40471;SDS011;26174;42.908;23.800;2023-09-19T04:55:45;20.95;;;9.15;;
40471;SDS011;26174;42.908;23.800;2023-09-19T04:58:14;16.05;;;8.05;;
40471;SDS011;26174;42.908;23.800;2023-09-19T05:00:40;18.33;;;8.88;;
40471;SDS011;26174;42.908;23.800;2023-09-19T05:03:05;28.80;;;11.52;;
40471;SDS011;26174;42.908;23.800;2023-09-19T05:05:31;32.55;;;11.32;;
40471;SDS011;26174;42.908;23.800;2023-09-19T05:07:56;27.67;;;10.20;;
40471;SDS011;26174;42.908;23.800;2023-09-19T05:10:22;24.80;;;9.77;;
40471;SDS011;26174;42.908;23.800;2023-09-19T05:12:52;29.58;;;8.73;;
40471;SDS011;26174;42.908;23.800;2023-09-19T05:15:18;31.48;;;8.20;;
40471;SDS011;26174;42.908;23.800;2023-09-19T05:17:47;29.50;;;11.32;;
40471;SDS011;26174;42.908;23.800;2023-09-19T05:20:15;22.25;;;8.57;;
40471;SDS011;26174;42.908;23.800;2023-09-19T05:22:50;20.30;;;8.00;;
40471;SDS011;26174;42.908;23.800;2023-09-19T05:25:26;28.70;;;13.07;;
40471;SDS011;26174;42.908;23.800;2023-09-19T05:27:55;15.20;;;7.93;;
40471;SDS011;26174;42.908;23.800;2023-09-19T05:30:23;19.65;;;8.18;;
40471;SDS011;26174;42.908;23.800;2023-09-19T05:32:48;21.05;;;9.02;;
40471;SDS011;26174;42.908;23.800;2023-09-19T05:35:15;16.85;;;7.10;;
40471;SDS011;26174;42.908;23.800;2023-09-19T05:37:41;17.60;;;9.35;;
40471;SDS011;26174;42.908;23.800;2023-09-19T05:40:06;13.40;;;6.60;;
40471;SDS011;26174;42.908;23.800;2023-09-19T05:42:37;17.52;;;7.85;;
40471;SDS011;26174;42.908;23.800;2023-09-19T05:45:07;18.48;;;7.68;;
40471;SDS011;26174;42.908;23.800;2023-09-19T05:47:33;18.42;;;7.65;;
40471;SDS011;26174;42.908;23.800;2023-09-19T05:49:59;16.55;;;8.25;;
40471;SDS011;26174;42.908;23.800;2023-09-19T05:52:25;19.20;;;7.13;;
40471;SDS011;26174;42.908;23.800;2023-09-19T05:54:50;26.08;;;9.13;;
40471;SDS011;26174;42.908;23.800;2023-09-19T05:57:16;19.38;;;8.25;;
40471;SDS011;26174;42.908;23.800;2023-09-19T05:59:41;17.92;;;7.60;;
40471;SDS011;26174;42.908;23.800;2023-09-19T06:02:08;14.68;;;7.47;;
40471;SDS011;26174;42.908;23.800;2023-09-19T06:04:35;14.55;;;8.20;;
40471;SDS011;26174;42.908;23.800;2023-09-19T06:07:00;16.10;;;6.93;;
40471;SDS011;26174;42.908;23.800;2023-09-19T06:09:30;18.33;;;7.45;;
40471;SDS011;26174;42.908;23.800;2023-09-19T06:11:57;20.45;;;7.78;;
40471;SDS011;26174;42.908;23.800;2023-09-19T06:14:23;22.10;;;7.93;;
40471;SDS011;26174;42.908;23.800;2023-09-19T06:16:49;21.92;;;7.72;;
40471;SDS011;26174;42.908;23.800;2023-09-19T06:19:15;17.27;;;6.63;;
40471;SDS011;26174;42.908;23.800;2023-09-19T06:21:41;15.20;;;5.85;;
40471;SDS011;26174;42.908;23.800;2023-09-19T06:24:07;15.25;;;6.40;;
40471;SDS011;26174;42.908;23.800;2023-09-19T06:26:32;17.90;;;6.68;;
40471;SDS011;26174;42.908;23.800;2023-09-19T06:28:58;31.33;;;9.30;;
40471;SDS011;26174;42.908;23.800;2023-09-19T06:31:24;28.42;;;7.63;;
40471;SDS011;26174;42.908;23.800;2023-09-19T06:33:51;15.48;;;6.47;;
40471;SDS011;26174;42.908;23.800;2023-09-19T06:36:17;14.25;;;6.63;;
40471;SDS011;26174;42.908;23.800;2023-09-19T06:38:44;12.25;;;6.78;;
40471;SDS011;26174;42.908;23.800;2023-09-19T06:41:10;14.85;;;6.65;;
40471;SDS011;26174;42.908;23.800;2023-09-19T06:43:36;13.85;;;6.38;;
40471;SDS011;26174;42.908;23.800;2023-09-19T06:46:02;14.43;;;6.80;;
40471;SDS011;26174;42.908;23.800;2023-09-19T06:48:28;18.55;;;6.70;;
40471;SDS011;26174;42.908;23.800;2023-09-19T06:50:57;11.68;;;6.50;;
40471;SDS011;26174;42.908;23.800;2023-09-19T06:53:23;8.35;;;5.97;;
40471;SDS011;26174;42.908;23.800;2023-09-19T06:55:52;24.38;;;6.07;;
40471;SDS011;26174;42.908;23.800;2023-09-19T06:58:18;12.88;;;6.00;;
40471;SDS011;26174;42.908;23.800;2023-09-19T07:00:45;9.90;;;5.72;;
40471;SDS011;26174;42.908;23.800;2023-09-19T07:03:13;16.25;;;5.53;;
40471;SDS011;26174;42.908;23.800;2023-09-19T07:05:39;10.30;;;5.72;;
40471;SDS011;26174;42.908;23.800;2023-09-19T07:08:08;34.33;;;7.03;;
40471;SDS011;26174;42.908;23.800;2023-09-19T07:10:37;14.00;;;6.35;;
40471;SDS011;26174;42.908;23.800;2023-09-19T07:13:06;11.77;;;6.43;;
40471;SDS011;26174;42.908;23.800;2023-09-19T07:15:35;11.05;;;6.07;;
40471;SDS011;26174;42.908;23.800;2023-09-19T07:18:04;9.35;;;5.60;;
40471;SDS011;26174;42.908;23.800;2023-09-19T07:20:30;11.57;;;5.95;;
40471;SDS011;26174;42.908;23.800;2023-09-19T07:22:57;11.10;;;6.90;;
40471;SDS011;26174;42.908;23.800;2023-09-19T07:25:26;13.02;;;5.78;;
40471;SDS011;26174;42.908;23.800;2023-09-19T07:27:54;11.02;;;6.35;;
40471;SDS011;26174;42.908;23.800;2023-09-19T07:30:20;10.63;;;5.95;;
40471;SDS011;26174;42.908;23.800;2023-09-19T07:32:46;7.82;;;4.95;;
40471;SDS011;26174;42.908;23.800;2023-09-19T07:35:15;12.77;;;4.68;;
40471;SDS011;26174;42.908;23.800;2023-09-19T07:37:44;16.23;;;4.90;;
40471;SDS011;26174;42.908;23.800;2023-09-19T07:40:17;7.80;;;4.45;;
40471;SDS011;26174;42.908;23.800;2023-09-19T07:42:43;9.25;;;4.57;;
40471;SDS011;26174;42.908;23.800;2023-09-19T07:45:09;11.80;;;4.82;;
40471;SDS011;26174;42.908;23.800;2023-09-19T07:47:45;7.68;;;4.30;;
40471;SDS011;26174;42.908;23.800;2023-09-19T07:50:11;6.85;;;4.72;;
40471;SDS011;26174;42.908;23.800;2023-09-19T07:52:37;8.45;;;4.53;;
40471;SDS011;26174;42.908;23.800;2023-09-19T07:55:05;10.88;;;4.72;;
40471;SDS011;26174;42.908;23.800;2023-09-19T07:57:35;10.77;;;5.53;;
40471;SDS011;26174;42.908;23.800;2023-09-19T08:00:01;13.43;;;5.55;;
40471;SDS011;26174;42.908;23.800;2023-09-19T08:02:29;9.82;;;5.65;;
40471;SDS011;26174;42.908;23.800;2023-09-19T08:04:55;7.03;;;4.90;;
40471;SDS011;26174;42.908;23.800;2023-09-19T08:07:23;6.63;;;4.20;;
40471;SDS011;26174;42.908;23.800;2023-09-19T08:09:49;13.88;;;5.00;;
40471;SDS011;26174;42.908;23.800;2023-09-19T08:12:14;16.88;;;7.13;;
40471;SDS011;26174;42.908;23.800;2023-09-19T08:14:40;12.38;;;4.70;;
40471;SDS011;26174;42.908;23.800;2023-09-19T08:17:09;13.85;;;4.78;;
40471;SDS011;26174;42.908;23.800;2023-09-19T08:19:34;7.75;;;4.32;;
40471;SDS011;26174;42.908;23.800;2023-09-19T08:22:01;7.72;;;4.93;;
40471;SDS011;26174;42.908;23.800;2023-09-19T08:24:28;8.98;;;5.05;;
40471;SDS011;26174;42.908;23.800;2023-09-19T08:26:54;11.05;;;5.03;;
40471;SDS011;26174;42.908;23.800;2023-09-19T08:29:21;8.50;;;5.38;;
40471;SDS011;26174;42.908;23.800;2023-09-19T08:31:53;7.03;;;3.85;;
40471;SDS011;26174;42.908;23.800;2023-09-19T08:34:19;7.95;;;4.30;;
40471;SDS011;26174;42.908;23.800;2023-09-19T08:36:46;10.80;;;5.15;;
40471;SDS011;26174;42.908;23.800;2023-09-19T08:39:13;15.60;;;7.90;;
40471;SDS011;26174;42.908;23.800;2023-09-19T08:41:39;16.65;;;5.45;;
40471;SDS011;26174;42.908;23.800;2023-09-19T08:44:05;22.42;;;7.20;;
40471;SDS011;26174;42.908;23.800;2023-09-19T08:46:30;25.90;;;9.85;;
40471;SDS011;26174;42.908;23.800;2023-09-19T08:49:04;17.23;;;4.75;;
40471;SDS011;26174;42.908;23.800;2023-09-19T08:51:43;13.05;;;5.55;;
40471;SDS011;26174;42.908;23.800;2023-09-19T08:54:24;13.27;;;5.72;;
40471;SDS011;26174;42.908;23.800;2023-09-19T08:56:54;10.68;;;4.97;;
40471;SDS011;26174;42.908;23.800;2023-09-19T08:59:22;14.43;;;5.68;;
40471;SDS011;26174;42.908;23.800;2023-09-19T09:01:52;15.20;;;6.20;;
40471;SDS011;26174;42.908;23.800;2023-09-19T09:04:19;9.63;;;4.10;;
40471;SDS011;26174;42.908;23.800;2023-09-19T09:06:45;6.65;;;3.72;;
40471;SDS011;26174;42.908;23.800;2023-09-19T09:09:14;5.65;;;3.95;;
40471;SDS011;26174;42.908;23.800;2023-09-19T09:11:40;7.75;;;4.20;;
40471;SDS011;26174;42.908;23.800;2023-09-19T09:14:06;5.13;;;3.75;;
40471;SDS011;26174;42.908;23.800;2023-09-19T09:16:34;4.70;;;3.60;;
40471;SDS011;26174;42.908;23.800;2023-09-19T09:19:00;5.72;;;3.55;;
40471;SDS011;26174;42.908;23.800;2023-09-19T09:21:26;3.92;;;3.47;;
40471;SDS011;26174;42.908;23.800;2023-09-19T09:23:53;7.28;;;3.63;;
40471;SDS011;26174;42.908;23.800;2023-09-19T09:27:03;8.80;;;4.00;;
40471;SDS011;26174;42.908;23.800;2023-09-19T09:29:08;9.15;;;3.72;;
40471;SDS011;26174;42.908;23.800;2023-09-19T09:31:34;4.47;;;3.33;;
40471;SDS011;26174;42.908;23.800;2023-09-19T09:33:59;8.98;;;3.40;;
40471;SDS011;26174;42.908;23.800;2023-09-19T09:36:34;4.30;;;3.67;;
40471;SDS011;26174;42.908;23.800;2023-09-19T09:39:01;4.38;;;3.42;;
40471;SDS011;26174;42.908;23.800;2023-09-19T09:41:41;6.60;;;3.47;;
40471;SDS011;26174;42.908;23.800;2023-09-19T09:44:13;6.70;;;3.60;;
40471;SDS011;26174;42.908;23.800;2023-09-19T09:46:44;5.28;;;3.20;;
40471;SDS011;26174;42.908;23.800;2023-09-19T09:49:23;4.10;;;3.53;;
40471;SDS011;26174;42.908;23.800;2023-09-19T09:52:06;6.28;;;3.72;;
40471;SDS011;26174;42.908;23.800;2023-09-19T09:54:33;9.68;;;3.88;;
40471;SDS011;26174;42.908;23.800;2023-09-19T09:57:09;8.88;;;3.60;;
40471;SDS011;26174;42.908;23.800;2023-09-19T10:02:40;5.03;;;3.88;;
40471;SDS011;26174;42.908;23.800;2023-09-19T10:05:13;8.05;;;3.75;;
40471;SDS011;26174;42.908;23.800;2023-09-19T10:07:47;13.18;;;3.80;;
40471;SDS011;26174;42.908;23.800;2023-09-19T10:13:05;6.20;;;3.72;;
40471;SDS011;26174;42.908;23.800;2023-09-19T10:15:33;7.82;;;4.15;;
40471;SDS011;26174;42.908;23.800;2023-09-19T10:18:04;4.55;;;3.67;;
40471;SDS011;26174;42.908;23.800;2023-09-19T10:20:30;7.50;;;3.80;;
40471;SDS011;26174;42.908;23.800;2023-09-19T10:23:00;6.53;;;3.65;;
40471;SDS011;26174;42.908;23.800;2023-09-19T10:25:27;5.50;;;3.47;;
40471;SDS011;26174;42.908;23.800;2023-09-19T10:27:57;7.80;;;4.40;;
40471;SDS011;26174;42.908;23.800;2023-09-19T10:30:26;5.65;;;3.90;;
40471;SDS011;26174;42.908;23.800;2023-09-19T10:33:00;7.63;;;4.07;;
40471;SDS011;26174;42.908;23.800;2023-09-19T10:35:27;7.72;;;3.85;;
40471;SDS011;26174;42.908;23.800;2023-09-19T10:37:54;5.88;;;3.95;;
40471;SDS011;26174;42.908;23.800;2023-09-19T10:40:21;5.53;;;4.00;;
40471;SDS011;26174;42.908;23.800;2023-09-19T10:42:51;6.25;;;4.18;;
40471;SDS011;26174;42.908;23.800;2023-09-19T10:45:17;5.60;;;3.85;;
40471;SDS011;26174;42.908;23.800;2023-09-19T10:47:45;4.78;;;3.90;;
40471;SDS011;26174;42.908;23.800;2023-09-19T10:50:19;5.70;;;3.60;;
40471;SDS011;26174;42.908;23.800;2023-09-19T10:52:46;10.18;;;3.65;;
40471;SDS011;26174;42.908;23.800;2023-09-19T10:55:17;7.82;;;3.75;;
40471;SDS011;26174;42.908;23.800;2023-09-19T10:57:45;4.60;;;3.75;;
40471;SDS011;26174;42.908;23.800;2023-09-19T11:00:12;6.30;;;3.78;;
40471;SDS011;26174;42.908;23.800;2023-09-19T11:05:34;7.95;;;3.67;;
40471;SDS011;26174;42.908;23.800;2023-09-19T11:08:08;6.07;;;3.92;;
40471;SDS011;26174;42.908;23.800;2023-09-19T11:10:46;8.93;;;4.78;;
40471;SDS011;26174;42.908;23.800;2023-09-19T11:13:29;7.97;;;4.05;;
40471;SDS011;26174;42.908;23.800;2023-09-19T11:27:09;5.30;;;3.65;;
40471;SDS011;26174;42.908;23.800;2023-09-19T11:29:38;5.47;;;3.33;;
40471;SDS011;26174;42.908;23.800;2023-09-19T11:32:05;5.47;;;3.75;;
40471;SDS011;26174;42.908;23.800;2023-09-19T11:34:42;4.10;;;3.40;;
40471;SDS011;26174;42.908;23.800;2023-09-19T11:42:53;7.95;;;3.95;;
40471;SDS011;26174;42.908;23.800;2023-09-19T11:48:15;7.90;;;3.88;;
40471;SDS011;26174;42.908;23.800;2023-09-19T11:50:41;7.95;;;3.67;;
40471;SDS011;26174;42.908;23.800;2023-09-19T11:53:10;7.15;;;4.20;;
40471;SDS011;26174;42.908;23.800;2023-09-19T11:55:38;10.82;;;4.13;;
40471;SDS011;26174;42.908;23.800;2023-09-19T11:58:04;10.63;;;4.25;;
40471;SDS011;26174;42.908;23.800;2023-09-19T12:00:35;13.80;;;4.43;;
40471;SDS011;26174;42.908;23.800;2023-09-19T12:03:07;11.20;;;4.30;;
40471;SDS011;26174;42.908;23.800;2023-09-19T12:05:37;6.78;;;4.20;;
40471;SDS011;26174;42.908;23.800;2023-09-19T12:08:04;7.18;;;4.30;;
40471;SDS011;26174;42.908;23.800;2023-09-19T12:10:34;8.30;;;4.95;;
40471;SDS011;26174;42.908;23.800;2023-09-19T12:13:15;6.35;;;4.70;;
40471;SDS011;26174;42.908;23.800;2023-09-19T12:15:42;7.82;;;4.60;;
40471;SDS011;26174;42.908;23.800;2023-09-19T12:18:10;9.15;;;5.30;;
40471;SDS011;26174;42.908;23.800;2023-09-19T12:20:56;6.65;;;4.65;;
40471;SDS011;26174;42.908;23.800;2023-09-19T12:23:27;7.55;;;4.65;;
40471;SDS011;26174;42.908;23.800;2023-09-19T12:25:54;13.75;;;5.15;;
40471;SDS011;26174;42.908;23.800;2023-09-19T12:28:22;9.77;;;4.60;;
40471;SDS011;26174;42.908;23.800;2023-09-19T12:30:51;9.95;;;4.90;;
40471;SDS011;26174;42.908;23.800;2023-09-19T12:33:20;8.70;;;4.30;;
40471;SDS011;26174;42.908;23.800;2023-09-19T12:35:46;7.63;;;4.20;;
40471;SDS011;26174;42.908;23.800;2023-09-19T12:38:33;6.03;;;4.25;;
40471;SDS011;26174;42.908;23.800;2023-09-19T12:41:01;4.95;;;3.78;;
40471;SDS011;26174;42.908;23.800;2023-09-19T12:43:29;6.55;;;4.32;;
40471;SDS011;26174;42.908;23.800;2023-09-19T12:46:01;14.15;;;5.00;;
40471;SDS011;26174;42.908;23.800;2023-09-19T12:48:27;6.78;;;4.43;;
40471;SDS011;26174;42.908;23.800;2023-09-19T12:51:00;7.90;;;3.83;;
40471;SDS011;26174;42.908;23.800;2023-09-19T12:53:30;7.45;;;4.28;;
40471;SDS011;26174;42.908;23.800;2023-09-19T12:55:59;6.95;;;4.05;;
40471;SDS011;26174;42.908;23.800;2023-09-19T12:58:24;8.23;;;4.40;;
40471;SDS011;26174;42.908;23.800;2023-09-19T13:00:50;7.53;;;3.58;;
40471;SDS011;26174;42.908;23.800;2023-09-19T13:05:56;13.40;;;4.25;;
40471;SDS011;26174;42.908;23.800;2023-09-19T13:08:28;7.85;;;4.53;;
40471;SDS011;26174;42.908;23.800;2023-09-19T13:11:11;12.95;;;4.65;;
40471;SDS011;26174;42.908;23.800;2023-09-19T13:13:48;12.18;;;4.82;;
40471;SDS011;26174;42.908;23.800;2023-09-19T13:16:19;10.93;;;4.43;;
40471;SDS011;26174;42.908;23.800;2023-09-19T13:18:51;5.63;;;4.15;;
40471;SDS011;26174;42.908;23.800;2023-09-19T13:24:23;10.00;;;4.88;;
40471;SDS011;26174;42.908;23.800;2023-09-19T13:26:52;7.43;;;4.90;;
40471;SDS011;26174;42.908;23.800;2023-09-19T13:29:18;5.50;;;4.28;;
40471;SDS011;26174;42.908;23.800;2023-09-19T13:34:13;12.27;;;4.78;;
40471;SDS011;26174;42.908;23.800;2023-09-19T13:36:41;7.38;;;4.55;;
40471;SDS011;26174;42.908;23.800;2023-09-19T13:39:07;14.82;;;5.22;;
40471;SDS011;26174;42.908;23.800;2023-09-19T13:41:34;9.55;;;5.03;;
40471;SDS011;26174;42.908;23.800;2023-09-19T13:44:02;5.50;;;4.18;;
40471;SDS011;26174;42.908;23.800;2023-09-19T13:46:28;10.15;;;5.25;;
40471;SDS011;26174;42.908;23.800;2023-09-19T13:48:58;8.23;;;4.15;;
40471;SDS011;26174;42.908;23.800;2023-09-19T13:51:25;6.28;;;4.18;;
40471;SDS011;26174;42.908;23.800;2023-09-19T13:53:51;7.80;;;4.90;;
40471;SDS011;26174;42.908;23.800;2023-09-19T13:56:17;6.97;;;4.90;;
40471;SDS011;26174;42.908;23.800;2023-09-19T13:58:42;8.25;;;4.25;;
40471;SDS011;26174;42.908;23.800;2023-09-19T14:01:08;9.25;;;4.10;;
40471;SDS011;26174;42.908;23.800;2023-09-19T14:03:38;7.75;;;5.00;;
40471;SDS011;26174;42.908;23.800;2023-09-19T14:06:11;11.10;;;4.93;;
40471;SDS011;26174;42.908;23.800;2023-09-19T14:08:37;6.80;;;4.40;;
40471;SDS011;26174;42.908;23.800;2023-09-19T14:11:07;5.20;;;4.18;;
40471;SDS011;26174;42.908;23.800;2023-09-19T14:13:33;9.30;;;4.75;;
40471;SDS011;26174;42.908;23.800;2023-09-19T14:16:05;6.80;;;4.00;;
40471;SDS011;26174;42.908;23.800;2023-09-19T14:18:36;4.60;;;3.78;;
40471;SDS011;26174;42.908;23.800;2023-09-19T14:21:03;8.23;;;3.92;;
40471;SDS011;26174;42.908;23.800;2023-09-19T14:23:36;8.93;;;4.07;;
40471;SDS011;26174;42.908;23.800;2023-09-19T14:26:02;5.72;;;4.18;;
40471;SDS011;26174;42.908;23.800;2023-09-19T14:28:27;11.68;;;5.25;;
40471;SDS011;26174;42.908;23.800;2023-09-19T14:30:55;6.95;;;4.07;;
40471;SDS011;26174;42.908;23.800;2023-09-19T14:33:20;8.38;;;4.65;;
40471;SDS011;26174;42.908;23.800;2023-09-19T14:35:46;6.55;;;3.90;;
40471;SDS011;26174;42.908;23.800;2023-09-19T14:38:11;8.93;;;4.85;;
40471;SDS011;26174;42.908;23.800;2023-09-19T14:40:37;10.95;;;5.47;;
40471;SDS011;26174;42.908;23.800;2023-09-19T14:43:04;16.10;;;5.10;;
40471;SDS011;26174;42.908;23.800;2023-09-19T14:45:30;6.60;;;4.90;;
40471;SDS011;26174;42.908;23.800;2023-09-19T14:47:56;7.55;;;4.20;;
40471;SDS011;26174;42.908;23.800;2023-09-19T14:50:22;7.60;;;4.82;;
40471;SDS011;26174;42.908;23.800;2023-09-19T14:52:48;11.73;;;4.70;;
40471;SDS011;26174;42.908;23.800;2023-09-19T14:55:16;6.38;;;3.53;;
40471;SDS011;26174;42.908;23.800;2023-09-19T14:57:42;11.05;;;3.92;;
40471;SDS011;26174;42.908;23.800;2023-09-19T15:00:10;9.98;;;3.80;;
40471;SDS011;26174;42.908;23.800;2023-09-19T15:02:37;18.08;;;4.75;;
40471;SDS011;26174;42.908;23.800;2023-09-19T15:05:06;8.40;;;4.50;;
40471;SDS011;26174;42.908;23.800;2023-09-19T15:07:34;8.25;;;3.97;;
40471;SDS011;26174;42.908;23.800;2023-09-19T15:10:02;5.55;;;3.60;;
40471;SDS011;26174;42.908;23.800;2023-09-19T15:12:28;12.32;;;5.13;;
40471;SDS011;26174;42.908;23.800;2023-09-19T15:14:54;16.73;;;7.18;;
40471;SDS011;26174;42.908;23.800;2023-09-19T15:17:19;11.43;;;4.05;;
40471;SDS011;26174;42.908;23.800;2023-09-19T15:19:45;4.32;;;3.30;;
40471;SDS011;26174;42.908;23.800;2023-09-19T15:22:11;4.68;;;3.38;;
40471;SDS011;26174;42.908;23.800;2023-09-19T15:24:37;4.82;;;3.65;;